sensor_id;sensor_type;location;lat;lon;timestamp;temperature;humidity
43647;DHT22;56152;49.996;18.980;2023-06-10T00:02:45;16.30;93.50
43647;DHT22;56152;49.996;18.980;2023-06-10T00:07:47;16.20;93.50
43647;DHT22;56152;49.996;18.980;2023-06-10T00:12:52;16.30;93.50
43647;DHT22;56152;49.996;18.980;2023-06-10T00:17:55;16.20;93.50
43647;DHT22;56152;49.996;18.980;2023-06-10T00:22:58;16.20;93.60
43647;DHT22;56152;49.996;18.980;2023-06-10T00:28:03;16.20;93.70
43647;DHT22;56152;49.996;18.980;2023-06-10T00:33:05;16.10;93.70
43647;DHT22;56152;49.996;18.980;2023-06-10T00:38:10;16.00;93.80
43647;DHT22;56152;49.996;18.980;2023-06-10T00:43:13;16.10;93.80
43647;DHT22;56152;49.996;18.980;2023-06-10T00:48:15;16.10;93.90
43647;DHT22;56152;49.996;18.980;2023-06-10T00:53:17;16.10;93.90
43647;DHT22;56152;49.996;18.980;2023-06-10T00:58:23;16.10;93.90
43647;DHT22;56152;49.996;18.980;2023-06-10T01:03:26;16.00;93.90
43647;DHT22;56152;49.996;18.980;2023-06-10T01:08:35;16.00;93.90
43647;DHT22;56152;49.996;18.980;2023-06-10T01:13:41;16.10;94.00
43647;DHT22;56152;49.996;18.980;2023-06-10T01:18:44;16.10;94.00
43647;DHT22;56152;49.996;18.980;2023-06-10T01:23:48;16.10;94.00
43647;DHT22;56152;49.996;18.980;2023-06-10T01:28:57;16.00;94.00
43647;DHT22;56152;49.996;18.980;2023-06-10T01:34:01;16.00;94.10
43647;DHT22;56152;49.996;18.980;2023-06-10T01:39:05;16.00;94.10
43647;DHT22;56152;49.996;18.980;2023-06-10T01:44:09;16.00;94.20
43647;DHT22;56152;49.996;18.980;2023-06-10T01:49:11;16.00;94.20
43647;DHT22;56152;49.996;18.980;2023-06-10T01:54:15;16.00;94.20
43647;DHT22;56152;49.996;18.980;2023-06-10T01:59:17;16.10;94.60
43647;DHT22;56152;49.996;18.980;2023-06-10T02:04:19;16.00;94.30
43647;DHT22;56152;49.996;18.980;2023-06-10T02:09:23;16.00;94.40
43647;DHT22;56152;49.996;18.980;2023-06-10T02:14:25;16.10;94.40
43647;DHT22;56152;49.996;18.980;2023-06-10T02:19:27;16.10;94.40
43647;DHT22;56152;49.996;18.980;2023-06-10T02:24:30;16.00;94.50
43647;DHT22;56152;49.996;18.980;2023-06-10T02:29:33;16.10;94.50
43647;DHT22;56152;49.996;18.980;2023-06-10T02:34:35;16.00;94.50
43647;DHT22;56152;49.996;18.980;2023-06-10T02:39:39;16.10;94.50
43647;DHT22;56152;49.996;18.980;2023-06-10T02:44:40;16.00;94.60
43647;DHT22;56152;49.996;18.980;2023-06-10T02:49:42;16.00;94.60
43647;DHT22;56152;49.996;18.980;2023-06-10T02:54:46;16.00;94.60
43647;DHT22;56152;49.996;18.980;2023-06-10T02:59:48;16.00;94.70
43647;DHT22;56152;49.996;18.980;2023-06-10T03:04:51;16.00;94.70
43647;DHT22;56152;49.996;18.980;2023-06-10T03:09:55;16.00;94.70
43647;DHT22;56152;49.996;18.980;2023-06-10T03:15:00;16.00;94.80
43647;DHT22;56152;49.996;18.980;2023-06-10T03:20:05;16.00;94.80
43647;DHT22;56152;49.996;18.980;2023-06-10T03:25:13;16.00;94.80
43647;DHT22;56152;49.996;18.980;2023-06-10T03:30:16;16.10;94.80
43647;DHT22;56152;49.996;18.980;2023-06-10T03:35:19;16.10;94.80
43647;DHT22;56152;49.996;18.980;2023-06-10T03:40:25;16.10;94.80
43647;DHT22;56152;49.996;18.980;2023-06-10T03:45:27;16.20;94.90
43647;DHT22;56152;49.996;18.980;2023-06-10T03:50:29;16.20;94.80
43647;DHT22;56152;49.996;18.980;2023-06-10T03:55:33;16.30;94.70
43647;DHT22;56152;49.996;18.980;2023-06-10T04:00:35;16.30;94.70
43647;DHT22;56152;49.996;18.980;2023-06-10T04:05:42;16.40;94.70
43647;DHT22;56152;49.996;18.980;2023-06-10T04:10:46;16.40;94.70
43647;DHT22;56152;49.996;18.980;2023-06-10T04:15:48;16.40;94.70
43647;DHT22;56152;49.996;18.980;2023-06-10T04:20:50;16.50;94.60
43647;DHT22;56152;49.996;18.980;2023-06-10T04:25:54;16.60;94.60
43647;DHT22;56152;49.996;18.980;2023-06-10T04:30:59;16.60;94.60
43647;DHT22;56152;49.996;18.980;2023-06-10T04:36:01;16.70;94.70
43647;DHT22;56152;49.996;18.980;2023-06-10T04:41:06;16.80;94.70
43647;DHT22;56152;49.996;18.980;2023-06-10T04:46:10;16.90;94.70
43647;DHT22;56152;49.996;18.980;2023-06-10T04:51:14;16.90;94.60
43647;DHT22;56152;49.996;18.980;2023-06-10T04:56:18;16.90;94.60
43647;DHT22;56152;49.996;18.980;2023-06-10T05:01:20;17.00;94.60
43647;DHT22;56152;49.996;18.980;2023-06-10T05:06:22;17.00;94.60
43647;DHT22;56152;49.996;18.980;2023-06-10T05:11:28;17.00;94.70
43647;DHT22;56152;49.996;18.980;2023-06-10T05:16:30;17.00;94.60
43647;DHT22;56152;49.996;18.980;2023-06-10T05:21:31;17.00;94.60
43647;DHT22;56152;49.996;18.980;2023-06-10T05:26:35;17.10;94.70
43647;DHT22;56152;49.996;18.980;2023-06-10T05:31:41;17.10;94.70
43647;DHT22;56152;49.996;18.980;2023-06-10T05:36:44;17.10;94.60
43647;DHT22;56152;49.996;18.980;2023-06-10T05:41:48;17.10;94.70
43647;DHT22;56152;49.996;18.980;2023-06-10T05:46:50;17.10;94.70
43647;DHT22;56152;49.996;18.980;2023-06-10T05:51:52;17.20;94.70
43647;DHT22;56152;49.996;18.980;2023-06-10T05:56:58;17.20;94.60
43647;DHT22;56152;49.996;18.980;2023-06-10T06:01:59;17.20;94.60
43647;DHT22;56152;49.996;18.980;2023-06-10T06:07:01;17.30;94.80
43647;DHT22;56152;49.996;18.980;2023-06-10T06:12:07;17.40;94.30
43647;DHT22;56152;49.996;18.980;2023-06-10T06:17:09;17.50;94.20
43647;DHT22;56152;49.996;18.980;2023-06-10T06:22:15;17.60;94.00
43647;DHT22;56152;49.996;18.980;2023-06-10T06:27:22;17.80;93.80
43647;DHT22;56152;49.996;18.980;2023-06-10T06:32:25;17.90;93.50
43647;DHT22;56152;49.996;18.980;2023-06-10T06:37:28;17.90;93.40
43647;DHT22;56152;49.996;18.980;2023-06-10T06:42:31;18.00;93.40
43647;DHT22;56152;49.996;18.980;2023-06-10T06:47:33;18.30;93.20
43647;DHT22;56152;49.996;18.980;2023-06-10T06:52:35;18.40;92.90
43647;DHT22;56152;49.996;18.980;2023-06-10T06:57:38;18.60;92.70
43647;DHT22;56152;49.996;18.980;2023-06-10T07:02:40;18.70;92.50
43647;DHT22;56152;49.996;18.980;2023-06-10T07:07:42;18.80;92.50
43647;DHT22;56152;49.996;18.980;2023-06-10T07:12:46;18.80;92.40
43647;DHT22;56152;49.996;18.980;2023-06-10T07:17:51;18.70;92.70
43647;DHT22;56152;49.996;18.980;2023-06-10T07:22:55;18.60;92.50
43647;DHT22;56152;49.996;18.980;2023-06-10T07:27:59;18.50;92.70
43647;DHT22;56152;49.996;18.980;2023-06-10T07:33:03;18.40;92.70
43647;DHT22;56152;49.996;18.980;2023-06-10T07:38:08;18.50;92.70
43647;DHT22;56152;49.996;18.980;2023-06-10T07:43:13;18.50;92.70
43647;DHT22;56152;49.996;18.980;2023-06-10T07:48:18;18.40;92.60
43647;DHT22;56152;49.996;18.980;2023-06-10T07:53:20;18.50;92.50
43647;DHT22;56152;49.996;18.980;2023-06-10T07:58:31;18.60;92.50
43647;DHT22;56152;49.996;18.980;2023-06-10T08:03:35;18.70;92.40
43647;DHT22;56152;49.996;18.980;2023-06-10T08:08:37;18.80;92.40
43647;DHT22;56152;49.996;18.980;2023-06-10T08:13:45;18.80;92.40
43647;DHT22;56152;49.996;18.980;2023-06-10T08:18:47;19.20;92.30
43647;DHT22;56152;49.996;18.980;2023-06-10T08:23:52;19.80;91.70
43647;DHT22;56152;49.996;18.980;2023-06-10T08:28:56;20.30;91.10
43647;DHT22;56152;49.996;18.980;2023-06-10T08:33:58;21.00;90.50
43647;DHT22;56152;49.996;18.980;2023-06-10T08:39:00;21.40;89.30
43647;DHT22;56152;49.996;18.980;2023-06-10T08:44:09;21.20;89.00
43647;DHT22;56152;49.996;18.980;2023-06-10T08:49:24;21.10;89.10
43647;DHT22;56152;49.996;18.980;2023-06-10T08:54:31;21.10;89.00
43647;DHT22;56152;49.996;18.980;2023-06-10T08:59:38;21.30;88.50
43647;DHT22;56152;49.996;18.980;2023-06-10T09:04:42;21.60;87.90
43647;DHT22;56152;49.996;18.980;2023-06-10T09:09:45;21.80;86.80
43647;DHT22;56152;49.996;18.980;2023-06-10T09:14:48;21.70;87.00
43647;DHT22;56152;49.996;18.980;2023-06-10T09:19:51;21.60;86.70
43647;DHT22;56152;49.996;18.980;2023-06-10T09:25:02;21.60;87.40
43647;DHT22;56152;49.996;18.980;2023-06-10T09:30:09;22.00;85.70
43647;DHT22;56152;49.996;18.980;2023-06-10T09:35:11;22.20;84.00
43647;DHT22;56152;49.996;18.980;2023-06-10T09:40:13;22.50;82.40
43647;DHT22;56152;49.996;18.980;2023-06-10T09:45:17;22.70;81.20
43647;DHT22;56152;49.996;18.980;2023-06-10T09:50:20;22.70;80.80
43647;DHT22;56152;49.996;18.980;2023-06-10T09:55:23;22.60;80.40
43647;DHT22;56152;49.996;18.980;2023-06-10T10:00:27;23.00;79.60
43647;DHT22;56152;49.996;18.980;2023-06-10T10:05:30;23.60;77.90
43647;DHT22;56152;49.996;18.980;2023-06-10T10:10:32;23.90;76.10
43647;DHT22;56152;49.996;18.980;2023-06-10T10:15:35;24.20;75.40
43647;DHT22;56152;49.996;18.980;2023-06-10T10:20:46;24.60;74.10
43647;DHT22;56152;49.996;18.980;2023-06-10T10:25:51;24.60;74.20
43647;DHT22;56152;49.996;18.980;2023-06-10T10:30:59;24.70;73.30
43647;DHT22;56152;49.996;18.980;2023-06-10T10:36:06;24.70;72.70
43647;DHT22;56152;49.996;18.980;2023-06-10T10:41:09;24.30;72.80
43647;DHT22;56152;49.996;18.980;2023-06-10T10:46:16;24.00;74.40
43647;DHT22;56152;49.996;18.980;2023-06-10T10:51:18;23.30;75.80
43647;DHT22;56152;49.996;18.980;2023-06-10T10:56:20;22.60;77.90
43647;DHT22;56152;49.996;18.980;2023-06-10T11:01:24;22.50;78.70
43647;DHT22;56152;49.996;18.980;2023-06-10T11:06:26;22.80;78.10
43647;DHT22;56152;49.996;18.980;2023-06-10T11:11:49;22.60;78.20
43647;DHT22;56152;49.996;18.980;2023-06-10T11:16:53;22.20;79.00
43647;DHT22;56152;49.996;18.980;2023-06-10T11:21:58;21.80;81.20
43647;DHT22;56152;49.996;18.980;2023-06-10T11:27:20;21.50;82.60
43647;DHT22;56152;49.996;18.980;2023-06-10T11:32:29;21.20;83.60
43647;DHT22;56152;49.996;18.980;2023-06-10T11:37:31;20.90;85.40
43647;DHT22;56152;49.996;18.980;2023-06-10T11:42:38;20.60;86.90
43647;DHT22;56152;49.996;18.980;2023-06-10T11:47:55;20.40;88.40
43647;DHT22;56152;49.996;18.980;2023-06-10T11:52:57;20.20;89.40
43647;DHT22;56152;49.996;18.980;2023-06-10T11:58:02;20.20;90.00
43647;DHT22;56152;49.996;18.980;2023-06-10T12:03:09;20.10;90.30
43647;DHT22;56152;49.996;18.980;2023-06-10T12:08:11;20.00;90.50
43647;DHT22;56152;49.996;18.980;2023-06-10T12:13:14;19.90;90.60
43647;DHT22;56152;49.996;18.980;2023-06-10T12:18:17;19.90;90.70
43647;DHT22;56152;49.996;18.980;2023-06-10T12:23:25;19.80;90.80
43647;DHT22;56152;49.996;18.980;2023-06-10T12:28:34;19.80;90.80
43647;DHT22;56152;49.996;18.980;2023-06-10T12:33:37;19.80;90.80
43647;DHT22;56152;49.996;18.980;2023-06-10T12:38:39;19.80;90.70
43647;DHT22;56152;49.996;18.980;2023-06-10T12:43:41;19.90;90.50
43647;DHT22;56152;49.996;18.980;2023-06-10T12:48:51;19.90;90.30
43647;DHT22;56152;49.996;18.980;2023-06-10T12:53:57;20.10;90.20
43647;DHT22;56152;49.996;18.980;2023-06-10T12:58:59;20.20;90.00
43647;DHT22;56152;49.996;18.980;2023-06-10T13:04:07;20.40;89.30
43647;DHT22;56152;49.996;18.980;2023-06-10T13:09:09;20.50;88.20
43647;DHT22;56152;49.996;18.980;2023-06-10T13:14:11;20.60;87.10
43647;DHT22;56152;49.996;18.980;2023-06-10T13:19:14;20.90;86.00
43647;DHT22;56152;49.996;18.980;2023-06-10T13:24:16;21.00;85.00
43647;DHT22;56152;49.996;18.980;2023-06-10T13:29:20;21.00;84.60
43647;DHT22;56152;49.996;18.980;2023-06-10T13:34:23;21.10;84.20
43647;DHT22;56152;49.996;18.980;2023-06-10T13:39:26;21.20;83.30
43647;DHT22;56152;49.996;18.980;2023-06-10T13:44:28;21.20;82.70
43647;DHT22;56152;49.996;18.980;2023-06-10T13:49:35;21.30;82.50
43647;DHT22;56152;49.996;18.980;2023-06-10T13:54:37;21.30;81.90
43647;DHT22;56152;49.996;18.980;2023-06-10T13:59:39;21.30;81.80
43647;DHT22;56152;49.996;18.980;2023-06-10T14:04:43;21.50;82.10
43647;DHT22;56152;49.996;18.980;2023-06-10T14:09:44;21.80;81.20
43647;DHT22;56152;49.996;18.980;2023-06-10T14:14:47;22.00;80.80
43647;DHT22;56152;49.996;18.980;2023-06-10T14:19:50;22.10;80.10
43647;DHT22;56152;49.996;18.980;2023-06-10T14:24:52;22.30;79.20
43647;DHT22;56152;49.996;18.980;2023-06-10T14:29:53;22.50;79.40
43647;DHT22;56152;49.996;18.980;2023-06-10T14:34:57;22.80;77.10
43647;DHT22;56152;49.996;18.980;2023-06-10T14:39:59;22.90;75.20
43647;DHT22;56152;49.996;18.980;2023-06-10T14:45:04;23.10;74.30
43647;DHT22;56152;49.996;18.980;2023-06-10T14:50:08;22.90;73.80
43647;DHT22;56152;49.996;18.980;2023-06-10T14:55:10;22.80;73.50
43647;DHT22;56152;49.996;18.980;2023-06-10T15:00:13;22.80;73.80
43647;DHT22;56152;49.996;18.980;2023-06-10T15:05:18;22.70;74.00
43647;DHT22;56152;49.996;18.980;2023-06-10T15:10:21;22.80;73.70
43647;DHT22;56152;49.996;18.980;2023-06-10T15:15:23;22.80;73.60
43647;DHT22;56152;49.996;18.980;2023-06-10T15:20:27;22.80;73.40
43647;DHT22;56152;49.996;18.980;2023-06-10T15:25:29;22.70;73.20
43647;DHT22;56152;49.996;18.980;2023-06-10T15:30:31;22.60;73.40
43647;DHT22;56152;49.996;18.980;2023-06-10T15:35:34;22.40;73.60
43647;DHT22;56152;49.996;18.980;2023-06-10T15:40:41;22.30;73.20
43647;DHT22;56152;49.996;18.980;2023-06-10T15:45:43;22.10;74.20
43647;DHT22;56152;49.996;18.980;2023-06-10T15:50:47;21.80;73.80
43647;DHT22;56152;49.996;18.980;2023-06-10T15:55:49;21.70;74.00
43647;DHT22;56152;49.996;18.980;2023-06-10T16:00:51;21.50;74.00
43647;DHT22;56152;49.996;18.980;2023-06-10T16:05:54;21.30;73.90
43647;DHT22;56152;49.996;18.980;2023-06-10T16:10:56;21.30;73.90
43647;DHT22;56152;49.996;18.980;2023-06-10T16:15:58;21.30;74.20
43647;DHT22;56152;49.996;18.980;2023-06-10T16:21:04;21.20;74.10
43647;DHT22;56152;49.996;18.980;2023-06-10T16:26:06;21.10;74.10
43647;DHT22;56152;49.996;18.980;2023-06-10T16:31:08;21.00;74.50
43647;DHT22;56152;49.996;18.980;2023-06-10T16:36:12;20.90;74.80
43647;DHT22;56152;49.996;18.980;2023-06-10T16:41:13;20.80;75.30
43647;DHT22;56152;49.996;18.980;2023-06-10T16:46:16;20.80;75.80
43647;DHT22;56152;49.996;18.980;2023-06-10T16:51:21;20.80;76.20
43647;DHT22;56152;49.996;18.980;2023-06-10T16:56:24;20.70;76.30
43647;DHT22;56152;49.996;18.980;2023-06-10T17:01:27;20.60;76.30
43647;DHT22;56152;49.996;18.980;2023-06-10T17:06:31;20.50;76.00
43647;DHT22;56152;49.996;18.980;2023-06-10T17:11:33;20.50;75.80
43647;DHT22;56152;49.996;18.980;2023-06-10T17:16:37;20.40;75.90
43647;DHT22;56152;49.996;18.980;2023-06-10T17:21:40;20.40;76.00
43647;DHT22;56152;49.996;18.980;2023-06-10T17:26:42;20.30;76.00
43647;DHT22;56152;49.996;18.980;2023-06-10T17:31:44;20.30;76.20
43647;DHT22;56152;49.996;18.980;2023-06-10T17:36:47;20.20;76.30
43647;DHT22;56152;49.996;18.980;2023-06-10T17:41:55;20.20;76.20
43647;DHT22;56152;49.996;18.980;2023-06-10T17:46:57;20.20;76.20
43647;DHT22;56152;49.996;18.980;2023-06-10T17:52:01;20.10;75.90
43647;DHT22;56152;49.996;18.980;2023-06-10T17:57:05;20.00;76.00
43647;DHT22;56152;49.996;18.980;2023-06-10T18:02:11;19.80;75.20
43647;DHT22;56152;49.996;18.980;2023-06-10T18:07:15;19.70;75.30
43647;DHT22;56152;49.996;18.980;2023-06-10T18:12:17;19.60;75.10
43647;DHT22;56152;49.996;18.980;2023-06-10T18:17:19;19.50;75.10
43647;DHT22;56152;49.996;18.980;2023-06-10T18:22:23;19.40;75.10
43647;DHT22;56152;49.996;18.980;2023-06-10T18:27:25;19.30;75.00
43647;DHT22;56152;49.996;18.980;2023-06-10T18:32:27;19.20;75.00
43647;DHT22;56152;49.996;18.980;2023-06-10T18:37:31;19.20;75.20
43647;DHT22;56152;49.996;18.980;2023-06-10T18:42:33;19.00;75.30
43647;DHT22;56152;49.996;18.980;2023-06-10T18:47:34;19.00;75.60
43647;DHT22;56152;49.996;18.980;2023-06-10T18:52:38;19.00;75.50
43647;DHT22;56152;49.996;18.980;2023-06-10T18:57:41;19.00;75.60
43647;DHT22;56152;49.996;18.980;2023-06-10T19:02:45;19.00;75.70
43647;DHT22;56152;49.996;18.980;2023-06-10T19:07:49;19.00;75.80
43647;DHT22;56152;49.996;18.980;2023-06-10T19:12:57;18.90;76.20
43647;DHT22;56152;49.996;18.980;2023-06-10T19:18:03;18.80;76.40
43647;DHT22;56152;49.996;18.980;2023-06-10T19:23:15;18.70;76.70
43647;DHT22;56152;49.996;18.980;2023-06-10T19:28:17;18.60;77.00
43647;DHT22;56152;49.996;18.980;2023-06-10T19:33:38;18.50;77.40
43647;DHT22;56152;49.996;18.980;2023-06-10T19:38:45;18.40;77.60
43647;DHT22;56152;49.996;18.980;2023-06-10T19:43:47;18.30;77.90
43647;DHT22;56152;49.996;18.980;2023-06-10T19:48:50;18.20;78.10
43647;DHT22;56152;49.996;18.980;2023-06-10T19:53:54;18.20;78.50
43647;DHT22;56152;49.996;18.980;2023-06-10T19:58:58;18.10;78.70
43647;DHT22;56152;49.996;18.980;2023-06-10T20:04:00;18.00;78.90
43647;DHT22;56152;49.996;18.980;2023-06-10T20:09:04;18.00;79.20
43647;DHT22;56152;49.996;18.980;2023-06-10T20:14:08;17.90;79.40
43647;DHT22;56152;49.996;18.980;2023-06-10T20:19:14;17.80;79.70
43647;DHT22;56152;49.996;18.980;2023-06-10T20:24:20;17.70;79.90
43647;DHT22;56152;49.996;18.980;2023-06-10T20:29:23;17.60;80.10
43647;DHT22;56152;49.996;18.980;2023-06-10T20:34:26;17.60;80.40
43647;DHT22;56152;49.996;18.980;2023-06-10T20:39:31;17.50;80.70
43647;DHT22;56152;49.996;18.980;2023-06-10T20:44:33;17.40;81.60
43647;DHT22;56152;49.996;18.980;2023-06-10T20:49:35;17.30;81.20
43647;DHT22;56152;49.996;18.980;2023-06-10T20:54:39;17.20;81.40
43647;DHT22;56152;49.996;18.980;2023-06-10T20:59:41;17.20;81.90
43647;DHT22;56152;49.996;18.980;2023-06-10T21:04:43;17.10;82.00
43647;DHT22;56152;49.996;18.980;2023-06-10T21:09:46;17.10;82.30
43647;DHT22;56152;49.996;18.980;2023-06-10T21:14:49;17.00;82.60
43647;DHT22;56152;49.996;18.980;2023-06-10T21:19:51;16.90;82.90
43647;DHT22;56152;49.996;18.980;2023-06-10T21:24:55;16.90;83.10
43647;DHT22;56152;49.996;18.980;2023-06-10T21:29:57;16.80;83.40
43647;DHT22;56152;49.996;18.980;2023-06-10T21:35:01;16.70;83.70
43647;DHT22;56152;49.996;18.980;2023-06-10T21:40:12;16.60;83.80
43647;DHT22;56152;49.996;18.980;2023-06-10T21:45:14;16.60;84.30
43647;DHT22;56152;49.996;18.980;2023-06-10T21:50:17;16.50;84.50
43647;DHT22;56152;49.996;18.980;2023-06-10T21:55:22;16.40;85.00
43647;DHT22;56152;49.996;18.980;2023-06-10T22:00:24;16.40;85.20
43647;DHT22;56152;49.996;18.980;2023-06-10T22:05:26;16.30;85.40
43647;DHT22;56152;49.996;18.980;2023-06-10T22:10:29;16.30;85.80
43647;DHT22;56152;49.996;18.980;2023-06-10T22:15:31;16.20;86.10
43647;DHT22;56152;49.996;18.980;2023-06-10T22:20:34;16.20;86.30
43647;DHT22;56152;49.996;18.980;2023-06-10T22:25:38;16.10;86.50
43647;DHT22;56152;49.996;18.980;2023-06-10T22:30:41;16.10;86.80
43647;DHT22;56152;49.996;18.980;2023-06-10T22:35:43;16.00;87.10
43647;DHT22;56152;49.996;18.980;2023-06-10T22:40:46;16.00;87.40
43647;DHT22;56152;49.996;18.980;2023-06-10T22:45:48;15.90;87.90
43647;DHT22;56152;49.996;18.980;2023-06-10T22:50:50;15.90;88.20
43647;DHT22;56152;49.996;18.980;2023-06-10T22:55:54;15.80;88.30
43647;DHT22;56152;49.996;18.980;2023-06-10T23:00:56;15.70;88.60
43647;DHT22;56152;49.996;18.980;2023-06-10T23:05:59;15.70;88.90
43647;DHT22;56152;49.996;18.980;2023-06-10T23:11:03;15.70;89.00
43647;DHT22;56152;49.996;18.980;2023-06-10T23:16:05;15.60;89.30
43647;DHT22;56152;49.996;18.980;2023-06-10T23:21:08;15.50;89.60
43647;DHT22;56152;49.996;18.980;2023-06-10T23:26:12;15.50;89.90
43647;DHT22;56152;49.996;18.980;2023-06-10T23:31:13;15.40;90.00
43647;DHT22;56152;49.996;18.980;2023-06-10T23:36:16;15.30;90.10
43647;DHT22;56152;49.996;18.980;2023-06-10T23:41:22;15.30;90.20
43647;DHT22;56152;49.996;18.980;2023-06-10T23:46:24;15.30;90.30
43647;DHT22;56152;49.996;18.980;2023-06-10T23:51:26;15.20;90.40
43647;DHT22;56152;49.996;18.980;2023-06-10T23:56:32;15.20;90.50
